createdAt,value
2022-08-29T00:00:47.801Z,24.03
2022-08-29T00:03:55.568Z,24.02
2022-08-29T00:07:01.711Z,24.01
2022-08-29T00:10:10.734Z,23.96
2022-08-29T00:13:17.531Z,23.90
2022-08-29T00:16:23.953Z,23.87
2022-08-29T00:19:30.813Z,23.85
2022-08-29T00:22:37.096Z,23.86
2022-08-29T00:25:43.334Z,23.89
2022-08-29T00:28:49.231Z,23.91
2022-08-29T00:31:53.644Z,23.94
2022-08-29T00:34:59.569Z,23.93
2022-08-29T00:38:05.457Z,23.96
2022-08-29T00:41:11.578Z,23.92
2022-08-29T00:44:18.090Z,23.92
2022-08-29T00:47:37.783Z,23.93
2022-08-29T00:50:48.596Z,23.91
2022-08-29T00:54:00.797Z,23.89
2022-08-29T00:57:07.894Z,23.86
2022-08-29T01:00:17.734Z,23.82
2022-08-29T01:03:24.382Z,23.79
2022-08-29T01:06:30.942Z,23.73
2022-08-29T01:09:39.538Z,23.72
2022-08-29T01:12:46.053Z,23.72
2022-08-29T01:15:52.907Z,23.73
2022-08-29T01:19:04.454Z,23.73
2022-08-29T01:22:22.362Z,23.69
2022-08-29T01:25:32.421Z,23.64
2022-08-29T01:28:42.526Z,23.63
2022-08-29T01:31:57.430Z,23.64
2022-08-29T01:35:02.744Z,23.67
2022-08-29T01:38:08.866Z,23.65
2022-08-29T01:41:18.141Z,23.69
2022-08-29T01:44:26.724Z,23.71
2022-08-29T01:47:35.658Z,23.66
2022-08-29T01:50:41.799Z,23.61
2022-08-29T01:53:48.270Z,23.60
2022-08-29T01:56:55.470Z,23.59
2022-08-29T02:00:03.008Z,23.58
2022-08-29T02:03:09.242Z,23.59
2022-08-29T02:06:15.405Z,23.58
2022-08-29T02:09:21.503Z,23.58
2022-08-29T02:12:27.723Z,23.56
2022-08-29T02:15:34.151Z,23.53
2022-08-29T02:18:40.712Z,23.51
2022-08-29T02:21:46.890Z,23.49
2022-08-29T02:24:53.105Z,23.51
2022-08-29T02:27:59.546Z,23.53
2022-08-29T02:31:06.595Z,23.56
2022-08-29T02:34:13.207Z,23.59
2022-08-29T02:37:19.681Z,23.56
2022-08-29T02:40:32.044Z,23.53
2022-08-29T02:43:38.402Z,23.52
2022-08-29T02:46:44.648Z,23.50
2022-08-29T02:49:50.792Z,23.47
2022-08-29T02:52:57.255Z,23.49
2022-08-29T02:56:03.516Z,23.50
2022-08-29T02:59:10.030Z,23.48
2022-08-29T03:02:16.334Z,23.46
2022-08-29T03:05:25.073Z,23.47
2022-08-29T03:08:31.741Z,23.49
2022-08-29T03:11:37.886Z,23.50
2022-08-29T03:14:44.117Z,23.48
2022-08-29T03:17:50.388Z,23.48
2022-08-29T03:20:56.594Z,23.49
2022-08-29T03:24:02.734Z,23.48
2022-08-29T03:27:09.376Z,23.51
2022-08-29T03:30:17.677Z,23.52
2022-08-29T03:33:23.818Z,23.52
2022-08-29T03:36:29.996Z,23.49
2022-08-29T03:39:38.215Z,23.47
2022-08-29T03:42:44.632Z,23.47
2022-08-29T03:45:51.005Z,23.44
2022-08-29T03:48:57.205Z,23.42
2022-08-29T03:52:04.009Z,23.40
2022-08-29T03:55:11.693Z,23.39
2022-08-29T03:58:17.735Z,23.36
2022-08-29T04:01:26.985Z,23.33
2022-08-29T04:04:50.487Z,23.29
2022-08-29T04:07:58.642Z,23.23
2022-08-29T04:11:09.815Z,23.19
2022-08-29T04:14:16.023Z,23.12
2022-08-29T04:17:22.183Z,23.12
2022-08-29T04:20:30.589Z,23.10
2022-08-29T04:23:38.844Z,23.05
2022-08-29T04:26:45.154Z,23.04
2022-08-29T04:29:51.251Z,23.06
2022-08-29T04:32:57.618Z,23.07
2022-08-29T04:36:06.658Z,23.08
2022-08-29T04:39:13.328Z,23.12
2022-08-29T04:42:20.418Z,23.15
2022-08-29T04:45:27.034Z,23.15
2022-08-29T04:48:33.262Z,23.13
2022-08-29T04:51:39.526Z,23.12
2022-08-29T04:54:45.614Z,23.10
2022-08-29T04:57:53.426Z,23.07
2022-08-29T05:00:59.885Z,23.08
2022-08-29T05:04:07.341Z,23.07
2022-08-29T05:07:15.514Z,23.07
2022-08-29T05:10:23.259Z,23.05
2022-08-29T05:13:29.636Z,23.03
2022-08-29T05:16:37.445Z,23.01
2022-08-29T05:19:45.057Z,22.98
2022-08-29T05:22:51.642Z,22.94
2022-08-29T05:26:00.694Z,22.92
2022-08-29T05:29:08.548Z,22.90
2022-08-29T05:32:17.638Z,22.87
2022-08-29T05:35:24.353Z,22.80
2022-08-29T05:38:30.570Z,22.75
2022-08-29T05:41:38.612Z,22.73
2022-08-29T05:44:45.086Z,22.74
2022-08-29T05:47:51.529Z,22.76
2022-08-29T05:50:57.929Z,22.76
2022-08-29T05:54:04.039Z,22.74
2022-08-29T05:57:14.186Z,22.74
2022-08-29T06:00:24.101Z,22.72
2022-08-29T06:03:30.654Z,22.70
2022-08-29T06:06:36.986Z,22.68
2022-08-29T06:09:44.571Z,22.68
2022-08-29T06:12:50.837Z,22.69
2022-08-29T06:15:57.514Z,22.74
2022-08-29T06:19:03.739Z,22.77
2022-08-29T06:22:11.754Z,22.78
2022-08-29T06:25:37.972Z,22.79
2022-08-29T06:28:46.494Z,22.78
2022-08-29T06:31:52.699Z,22.77
2022-08-29T06:34:59.014Z,22.79
2022-08-29T06:38:05.246Z,22.77
2022-08-29T06:41:14.451Z,22.76
2022-08-29T06:44:21.559Z,22.78
2022-08-29T06:47:27.678Z,22.76
2022-08-29T06:50:33.850Z,22.72
2022-08-29T06:53:41.395Z,22.73
2022-08-29T06:56:48.195Z,22.71
2022-08-29T06:59:54.601Z,22.70
2022-08-29T07:03:01.069Z,22.66
2022-08-29T07:06:07.558Z,22.63
2022-08-29T07:09:14.816Z,22.61
2022-08-29T07:12:21.041Z,22.61
2022-08-29T07:15:33.103Z,22.61
2022-08-29T07:18:39.252Z,22.61
2022-08-29T07:21:45.367Z,22.63
2022-08-29T07:24:51.557Z,22.67
2022-08-29T07:27:57.717Z,22.70
2022-08-29T07:31:03.947Z,22.74
2022-08-29T07:34:10.222Z,22.74
2022-08-29T07:37:16.371Z,22.74
2022-08-29T07:40:23.058Z,22.73
2022-08-29T07:43:29.646Z,22.72
2022-08-29T07:46:35.919Z,22.72
2022-08-29T07:49:42.209Z,22.70
2022-08-29T07:52:48.726Z,22.69
2022-08-29T07:55:54.885Z,22.69
2022-08-29T07:59:02.075Z,22.70
2022-08-29T08:02:08.374Z,22.74
2022-08-29T08:05:14.734Z,22.77
2022-08-29T08:08:21.141Z,22.82
2022-08-29T08:11:28.433Z,22.88
2022-08-29T08:14:35.378Z,22.95
2022-08-29T08:17:44.104Z,23.03
2022-08-29T08:20:50.661Z,23.10
2022-08-29T08:23:57.118Z,23.17
2022-08-29T08:27:03.592Z,23.25
2022-08-29T08:30:11.856Z,23.31
2022-08-29T08:33:17.907Z,23.42
2022-08-29T08:36:26.874Z,23.54
2022-08-29T08:39:33.086Z,23.64
2022-08-29T08:42:43.435Z,23.74
2022-08-29T08:45:50.056Z,23.83
2022-08-29T08:48:58.424Z,23.93
2022-08-29T08:52:07.875Z,24.07
2022-08-29T08:55:24.051Z,24.19
2022-08-29T08:58:35.637Z,24.30
2022-08-29T09:01:45.433Z,24.44
2022-08-29T09:05:01.394Z,24.66
2022-08-29T09:08:15.270Z,24.97
2022-08-29T09:11:30.142Z,25.26
2022-08-29T09:14:59.988Z,25.44
2022-08-29T09:18:13.536Z,25.49
2022-08-29T09:21:40.634Z,25.13
2022-08-29T09:24:51.239Z,24.63
2022-08-29T09:27:58.339Z,24.43
2022-08-29T09:31:26.519Z,24.73
2022-08-29T09:35:04.856Z,25.05
2022-08-29T09:38:08.083Z,25.21
2022-08-29T09:41:28.221Z,25.22
2022-08-29T09:44:38.734Z,24.78
2022-08-29T09:47:45.469Z,24.45
2022-08-29T09:50:51.643Z,24.37
2022-08-29T09:54:15.169Z,24.78
2022-08-29T09:57:27.670Z,25.14
2022-08-29T10:00:38.174Z,24.90
2022-08-29T10:03:55.253Z,24.56
2022-08-29T10:07:12.122Z,24.32
2022-08-29T10:10:21.827Z,24.35
2022-08-29T10:13:34.307Z,24.86
2022-08-29T10:16:52.986Z,25.35
2022-08-29T10:19:59.819Z,25.62
2022-08-29T10:23:10.940Z,25.43
2022-08-29T10:26:27.653Z,25.22
2022-08-29T10:29:58.229Z,25.15
2022-08-29T10:33:21.403Z,25.08
2022-08-29T10:36:33.966Z,25.07
2022-08-29T10:39:47.443Z,25.10
2022-08-29T10:42:59.585Z,25.16
2022-08-29T10:46:18.957Z,25.14
2022-08-29T10:49:35.804Z,25.20
2022-08-29T10:52:53.370Z,25.35
2022-08-29T10:56:06.665Z,25.48
2022-08-29T10:59:21.564Z,25.48
2022-08-29T11:02:32.436Z,25.44
2022-08-29T11:05:44.512Z,25.42
2022-08-29T11:08:57.694Z,25.41
2022-08-29T11:12:17.359Z,25.33
2022-08-29T11:15:28.531Z,25.23
2022-08-29T11:18:41.124Z,25.17
2022-08-29T11:21:52.770Z,25.17
2022-08-29T11:25:09.389Z,25.15
2022-08-29T11:28:23.803Z,25.08
2022-08-29T11:31:50.082Z,25.01
2022-08-29T11:35:10.003Z,24.90
2022-08-29T11:38:40.643Z,24.85
2022-08-29T11:41:50.048Z,24.94
2022-08-29T11:44:59.774Z,24.99
2022-08-29T11:48:21.983Z,25.02
2022-08-29T11:51:36.165Z,25.04
2022-08-29T11:55:28.681Z,25.03
2022-08-29T11:58:50.487Z,25.02
2022-08-29T12:02:02.241Z,25.05
2022-08-29T12:05:11.025Z,25.21
2022-08-29T12:08:36.833Z,25.43
2022-08-29T12:12:21.431Z,25.61
2022-08-29T12:15:59.744Z,25.68
2022-08-29T12:19:06.160Z,25.75
2022-08-29T12:22:22.243Z,25.85
2022-08-29T12:29:22.151Z,26.18
2022-08-29T12:32:44.344Z,26.36
2022-08-29T12:36:12.657Z,26.56
2022-08-29T12:39:33.261Z,26.73
2022-08-29T12:42:49.563Z,26.76
2022-08-29T12:45:59.111Z,26.69
2022-08-29T12:49:16.379Z,26.60
2022-08-29T12:52:29.585Z,26.55
2022-08-29T12:55:40.853Z,26.53
2022-08-29T12:58:55.711Z,26.49
2022-08-29T13:02:03.099Z,26.39
2022-08-29T13:05:26.904Z,26.33
2022-08-29T13:08:38.269Z,26.31
2022-08-29T13:11:44.406Z,26.40
2022-08-29T13:14:56.394Z,26.53
2022-08-29T13:18:03.234Z,26.64
2022-08-29T13:21:14.894Z,26.72
2022-08-29T13:24:22.180Z,26.71
2022-08-29T13:27:28.413Z,26.71
2022-08-29T13:30:34.538Z,26.64
2022-08-29T13:34:01.119Z,26.61
2022-08-29T13:37:28.657Z,26.59
2022-08-29T13:40:44.101Z,26.64
2022-08-29T13:43:51.584Z,26.62
2022-08-29T13:47:01.508Z,26.55
2022-08-29T13:50:11.534Z,26.42
2022-08-29T13:53:17.895Z,26.25
2022-08-29T13:56:32.284Z,26.11
2022-08-29T13:59:40.035Z,26.03
2022-08-29T14:02:46.354Z,26.00
2022-08-29T14:05:56.655Z,26.03
2022-08-29T14:09:03.290Z,26.04
2022-08-29T14:12:11.093Z,26.06
2022-08-29T14:15:18.923Z,26.08
2022-08-29T14:18:25.055Z,26.11
2022-08-29T14:21:31.230Z,26.12
2022-08-29T14:24:37.831Z,26.12
2022-08-29T14:27:44.792Z,26.12
2022-08-29T14:30:51.846Z,26.07
2022-08-29T14:33:58.118Z,26.05
2022-08-29T14:37:04.955Z,26.00
2022-08-29T14:40:12.340Z,25.93
2022-08-29T14:43:18.617Z,25.83
2022-08-29T14:46:24.642Z,25.76
2022-08-29T14:49:30.794Z,25.67
2022-08-29T14:52:37.255Z,25.60
2022-08-29T14:55:44.059Z,25.52
2022-08-29T14:58:50.259Z,25.50
2022-08-29T15:01:56.521Z,25.47
2022-08-29T15:05:02.740Z,25.44
2022-08-29T15:08:10.462Z,25.39
2022-08-29T15:11:21.791Z,25.32
2022-08-29T15:14:27.935Z,25.27
2022-08-29T15:17:34.319Z,25.23
2022-08-29T15:20:43.746Z,25.20
2022-08-29T15:23:52.570Z,25.12
2022-08-29T15:26:59.520Z,25.06
2022-08-29T15:30:06.473Z,25.03
2022-08-29T15:33:12.605Z,25.00
2022-08-29T15:36:18.787Z,24.96
2022-08-29T15:39:25.578Z,24.93
2022-08-29T15:42:34.296Z,24.91
2022-08-29T15:45:40.565Z,24.88
2022-08-29T15:48:47.662Z,24.82
2022-08-29T15:51:54.161Z,24.76
2022-08-29T15:55:00.361Z,24.70
2022-08-29T15:58:06.503Z,24.65
2022-08-29T16:01:12.834Z,24.58
2022-08-29T16:04:21.647Z,24.50
2022-08-29T16:07:29.038Z,24.42
2022-08-29T16:10:36.511Z,24.36
2022-08-29T16:13:42.685Z,24.31
2022-08-29T16:16:49.503Z,24.25
2022-08-29T16:19:55.662Z,24.21
2022-08-29T16:23:02.411Z,24.14
2022-08-29T16:26:08.773Z,24.07
2022-08-29T16:29:14.981Z,24.01
2022-08-29T16:32:27.162Z,23.94
2022-08-29T16:35:33.253Z,23.87
2022-08-29T16:38:40.306Z,23.80
2022-08-29T16:41:47.161Z,23.74
2022-08-29T16:44:53.487Z,23.67
2022-08-29T16:47:59.925Z,23.59
2022-08-29T16:51:06.214Z,23.52
2022-08-29T16:54:12.872Z,23.45
2022-08-29T16:57:18.910Z,23.38
2022-08-29T17:00:25.526Z,23.30
2022-08-29T17:03:31.716Z,23.21
2022-08-29T17:06:38.738Z,23.11
2022-08-29T17:09:43.705Z,23.01
2022-08-29T17:12:48.660Z,22.91
2022-08-29T17:15:53.570Z,22.82
2022-08-29T17:19:00.079Z,22.73
2022-08-29T17:22:08.293Z,22.64
2022-08-29T17:25:14.623Z,22.55
2022-08-29T17:28:21.260Z,22.46
2022-08-29T17:31:27.427Z,22.36
2022-08-29T17:34:33.646Z,22.33
2022-08-29T17:37:40.378Z,22.72
2022-08-29T17:40:46.719Z,23.08
2022-08-29T17:43:54.321Z,23.30
2022-08-29T17:47:00.402Z,23.42
2022-08-29T17:50:07.832Z,23.53
2022-08-29T17:53:14.287Z,23.58
2022-08-29T17:56:22.553Z,23.51
2022-08-29T17:59:33.901Z,23.03
2022-08-29T18:02:40.385Z,22.57
2022-08-29T18:05:46.667Z,22.22
2022-08-29T18:08:52.846Z,22.05
2022-08-29T18:11:59.654Z,22.32
2022-08-29T18:15:07.450Z,22.59
2022-08-29T18:18:13.722Z,22.75
2022-08-29T18:21:20.222Z,22.84
2022-08-29T18:24:26.439Z,22.88
2022-08-29T18:27:33.552Z,22.91
2022-08-29T18:30:39.950Z,22.92
2022-08-29T18:34:00.226Z,22.91
2022-08-29T18:37:07.551Z,22.91
2022-08-29T18:40:14.802Z,22.89
2022-08-29T18:43:21.578Z,22.84
2022-08-29T18:46:27.939Z,22.81
2022-08-29T18:49:51.628Z,22.69
2022-08-29T18:52:57.979Z,22.11
2022-08-29T18:56:05.341Z,21.62
2022-08-29T18:59:12.334Z,21.34
2022-08-29T19:02:18.548Z,21.53
2022-08-29T19:05:26.441Z,21.73
2022-08-29T19:08:32.526Z,21.82
2022-08-29T19:11:38.686Z,21.85
2022-08-29T19:15:00.870Z,21.87
2022-08-29T19:18:08.913Z,21.88
2022-08-29T19:21:15.246Z,21.90
2022-08-29T19:24:21.519Z,21.89
2022-08-29T19:27:42.697Z,21.84
2022-08-29T19:30:50.832Z,21.81
2022-08-29T19:33:57.249Z,21.81
2022-08-29T19:37:05.406Z,21.81
2022-08-29T19:40:18.279Z,21.75
2022-08-29T19:43:25.506Z,21.66
2022-08-29T19:46:32.498Z,21.60
2022-08-29T19:49:43.412Z,21.57
2022-08-29T19:52:52.195Z,21.56
2022-08-29T19:55:58.914Z,21.56
2022-08-29T19:59:06.856Z,21.57
2022-08-29T20:02:13.838Z,21.56
2022-08-29T20:05:20.582Z,21.54
2022-08-29T20:08:29.246Z,21.54
2022-08-29T20:11:43.945Z,21.52
2022-08-29T20:14:52.746Z,21.48
2022-08-29T20:17:59.843Z,21.42
2022-08-29T20:21:06.342Z,21.37
2022-08-29T20:24:15.582Z,21.32
2022-08-29T20:27:22.810Z,21.28
2022-08-29T20:30:31.734Z,21.24
2022-08-29T20:33:41.296Z,21.20
2022-08-29T20:37:05.405Z,21.16
2022-08-29T20:40:13.626Z,21.11
2022-08-29T20:43:20.627Z,21.04
2022-08-29T20:46:28.550Z,20.98
2022-08-29T20:49:35.546Z,20.95
2022-08-29T20:52:41.714Z,20.91
2022-08-29T20:55:47.898Z,20.88
2022-08-29T20:58:54.026Z,20.82
2022-08-29T21:02:00.897Z,20.78
2022-08-29T21:05:25.773Z,20.73
2022-08-29T21:08:33.932Z,20.66
2022-08-29T21:11:40.163Z,20.64
2022-08-29T21:14:46.875Z,20.61
2022-08-29T21:17:53.081Z,20.56
2022-08-29T21:20:59.249Z,20.51
2022-08-29T21:24:07.308Z,20.48
2022-08-29T21:27:13.449Z,20.44
2022-08-29T21:30:19.987Z,20.41
2022-08-29T21:33:26.295Z,20.39
2022-08-29T21:36:32.531Z,20.38
2022-08-29T21:39:38.679Z,20.34
2022-08-29T21:42:44.842Z,20.30
2022-08-29T21:45:51.606Z,20.24
2022-08-29T21:49:01.061Z,20.16
2022-08-29T21:52:07.495Z,20.11
2022-08-29T21:55:14.086Z,20.06
2022-08-29T21:58:20.639Z,20.02
2022-08-29T22:01:30.070Z,19.96
2022-08-29T22:04:36.243Z,19.91
2022-08-29T22:07:43.060Z,19.87
2022-08-29T22:10:49.550Z,19.79
2022-08-29T22:13:56.911Z,19.77
2022-08-29T22:17:03.592Z,19.74
2022-08-29T22:20:08.974Z,19.69
2022-08-29T22:23:19.848Z,19.62
2022-08-29T22:26:26.911Z,19.55
2022-08-29T22:29:33.624Z,19.48
2022-08-29T22:32:40.059Z,19.43
2022-08-29T22:35:46.796Z,19.37
2022-08-29T22:38:55.400Z,19.33
2022-08-29T22:42:03.100Z,19.30
2022-08-29T22:45:12.158Z,19.27
2022-08-29T22:48:19.514Z,19.24
2022-08-29T22:51:27.839Z,19.19
2022-08-29T22:54:36.970Z,19.17
2022-08-29T22:57:45.479Z,19.11
2022-08-29T23:00:51.642Z,19.06
2022-08-29T23:03:59.305Z,19.03
2022-08-29T23:07:05.758Z,19.00
2022-08-29T23:10:14.264Z,18.95
2022-08-29T23:13:20.479Z,18.86
2022-08-29T23:16:27.706Z,18.78
2022-08-29T23:19:34.127Z,18.72
2022-08-29T23:22:42.951Z,18.67
2022-08-29T23:25:49.442Z,18.64
2022-08-29T23:28:56.190Z,18.62
2022-08-29T23:32:02.222Z,18.61
2022-08-29T23:35:07.691Z,18.59
2022-08-29T23:38:13.853Z,18.55
2022-08-29T23:41:22.145Z,18.55
2022-08-29T23:44:28.342Z,18.53
2022-08-29T23:47:35.439Z,18.51
2022-08-29T23:50:41.655Z,18.49
2022-08-29T23:53:53.599Z,18.45
2022-08-29T23:56:59.999Z,18.40
